createdAt,value
2023-01-08T00:02:12.048Z,4.28
2023-01-08T00:04:44.707Z,2.60
2023-01-08T00:07:16.431Z,10.90
2023-01-08T00:09:52.627Z,4.57
2023-01-08T00:12:26.920Z,4.25
2023-01-08T00:14:58.492Z,5.30
2023-01-08T00:17:34.168Z,4.13
2023-01-08T00:20:09.258Z,4.97
2023-01-08T00:22:41.210Z,2.75
2023-01-08T00:25:14.615Z,3.58
2023-01-08T00:27:51.753Z,2.88
2023-01-08T00:30:21.441Z,2.70
2023-01-08T00:32:56.022Z,3.42
2023-01-08T00:35:30.038Z,3.20
2023-01-08T00:38:09.077Z,3.03
2023-01-08T00:40:56.701Z,3.08
2023-01-08T00:43:34.617Z,3.10
2023-01-08T00:46:09.333Z,3.85
2023-01-08T00:48:41.391Z,5.30
2023-01-08T00:51:21.809Z,3.38
2023-01-08T00:53:54.763Z,2.67
2023-01-08T00:56:26.056Z,4.03
2023-01-08T00:59:01.255Z,3.15
2023-01-08T01:01:38.426Z,3.90
2023-01-08T01:04:14.521Z,2.42
2023-01-08T01:06:53.192Z,3.38
2023-01-08T01:09:23.408Z,3.63
2023-01-08T01:11:52.295Z,3.88
2023-01-08T01:14:22.724Z,5.57
2023-01-08T01:17:04.573Z,2.63
2023-01-08T01:19:43.880Z,2.58
2023-01-08T01:22:18.332Z,3.97
2023-01-08T01:24:54.338Z,4.80
2023-01-08T01:27:25.649Z,3.45
2023-01-08T01:30:23.784Z,3.42
2023-01-08T01:32:57.610Z,2.67
2023-01-08T01:35:26.241Z,3.58
2023-01-08T01:38:05.373Z,2.60
2023-01-08T01:40:42.127Z,3.45
2023-01-08T01:43:20.252Z,3.35
2023-01-08T01:45:51.431Z,5.22
2023-01-08T01:48:30.346Z,3.03
2023-01-08T01:51:19.286Z,2.58
2023-01-08T01:53:53.199Z,2.40
2023-01-08T01:56:24.765Z,4.10
2023-01-08T01:59:05.300Z,1.98
2023-01-08T02:01:38.906Z,2.10
2023-01-08T02:04:13.457Z,1.67
2023-01-08T02:07:15.478Z,2.90
2023-01-08T02:09:56.309Z,3.17
2023-01-08T02:12:45.949Z,2.47
2023-01-08T02:15:29.577Z,2.10
2023-01-08T02:18:16.918Z,2.42
2023-01-08T02:21:11.217Z,3.17
2023-01-08T02:24:12.146Z,2.30
2023-01-08T02:26:42.139Z,2.08
2023-01-08T02:29:15.537Z,2.13
2023-01-08T02:31:44.753Z,4.80
2023-01-08T02:34:13.270Z,2.97
2023-01-08T02:36:45.746Z,2.08
2023-01-08T02:39:24.218Z,1.80
2023-01-08T02:41:55.703Z,1.67
2023-01-08T02:44:41.809Z,1.52
2023-01-08T02:47:17.886Z,1.42
2023-01-08T02:49:47.178Z,2.38
2023-01-08T02:52:17.478Z,2.05
2023-01-08T02:54:47.204Z,1.55
2023-01-08T02:57:17.804Z,3.25
2023-01-08T02:59:49.074Z,2.30
2023-01-08T03:02:18.156Z,1.60
2023-01-08T03:04:55.360Z,2.97
2023-01-08T03:07:24.047Z,3.67
2023-01-08T03:09:52.950Z,1.90
2023-01-08T03:12:39.911Z,2.05
2023-01-08T03:15:13.987Z,1.90
2023-01-08T03:17:50.427Z,2.08
2023-01-08T03:20:21.959Z,3.13
2023-01-08T03:22:54.685Z,2.53
2023-01-08T03:25:26.347Z,1.70
2023-01-08T03:27:58.587Z,2.80
2023-01-08T03:33:00.418Z,2.40
2023-01-08T03:35:31.748Z,1.73
2023-01-08T03:38:16.552Z,2.47
2023-01-08T03:40:48.708Z,3.47
2023-01-08T03:45:56.138Z,3.70
2023-01-08T03:48:27.553Z,2.28
2023-01-08T03:50:56.341Z,2.22
2023-01-08T03:53:24.846Z,2.45
2023-01-08T03:55:53.456Z,2.28
2023-01-08T03:58:22.022Z,4.18
2023-01-08T04:00:50.648Z,2.13
2023-01-08T04:03:19.378Z,1.73
2023-01-08T04:05:47.926Z,1.67
2023-01-08T04:08:16.438Z,2.35
2023-01-08T04:10:45.030Z,2.33
2023-01-08T04:13:13.632Z,2.20
2023-01-08T04:15:48.370Z,2.75
2023-01-08T04:18:17.716Z,3.00
2023-01-08T04:20:47.606Z,2.15
2023-01-08T04:23:16.615Z,3.05
2023-01-08T04:25:46.089Z,2.53
2023-01-08T04:28:14.623Z,2.35
2023-01-08T04:30:43.168Z,3.75
2023-01-08T04:33:11.753Z,2.60
2023-01-08T04:35:40.318Z,2.85
2023-01-08T04:38:10.398Z,1.42
2023-01-08T04:40:40.092Z,4.83
2023-01-08T04:43:08.529Z,3.28
2023-01-08T04:45:37.826Z,2.28
2023-01-08T04:48:06.704Z,3.17
2023-01-08T04:50:35.588Z,2.83
2023-01-08T04:53:03.994Z,1.88
2023-01-08T04:55:33.367Z,2.55
2023-01-08T04:58:02.080Z,1.70
2023-01-08T05:00:30.807Z,1.45
2023-01-08T05:02:59.388Z,1.83
2023-01-08T05:05:27.932Z,1.92
2023-01-08T05:07:56.437Z,1.95
2023-01-08T05:10:25.150Z,3.15
2023-01-08T05:12:58.252Z,2.67
2023-01-08T05:15:27.501Z,2.08
2023-01-08T05:18:05.254Z,2.17
2023-01-08T05:20:34.202Z,3.00
2023-01-08T05:23:02.760Z,2.90
2023-01-08T05:25:31.261Z,3.25
2023-01-08T05:27:59.661Z,5.45
2023-01-08T05:30:28.169Z,2.33
2023-01-08T05:32:56.571Z,2.75
2023-01-08T05:35:25.019Z,6.63
2023-01-08T05:37:53.543Z,2.97
2023-01-08T05:40:21.996Z,2.65
2023-01-08T05:42:50.564Z,2.50
2023-01-08T05:45:18.996Z,2.92
2023-01-08T05:47:47.510Z,2.40
2023-01-08T05:50:16.184Z,4.85
2023-01-08T05:52:44.713Z,3.15
2023-01-08T05:55:13.254Z,2.30
2023-01-08T05:57:41.705Z,2.92
2023-01-08T06:00:10.717Z,5.35
2023-01-08T06:02:47.536Z,2.50
2023-01-08T06:05:16.111Z,2.55
2023-01-08T06:07:44.514Z,4.53
2023-01-08T06:10:12.970Z,2.58
2023-01-08T06:12:41.366Z,2.92
2023-01-08T06:15:11.932Z,2.42
2023-01-08T06:17:40.509Z,2.53
2023-01-08T06:20:10.543Z,2.35
2023-01-08T06:22:38.964Z,2.30
2023-01-08T06:25:07.767Z,1.58
2023-01-08T06:27:36.343Z,1.83
2023-01-08T06:30:05.414Z,1.95
2023-01-08T06:32:33.860Z,2.42
2023-01-08T06:35:03.434Z,2.10
2023-01-08T06:37:31.863Z,1.77
2023-01-08T06:40:00.364Z,2.08
2023-01-08T06:42:28.845Z,1.80
2023-01-08T06:44:57.229Z,3.00
2023-01-08T06:47:25.702Z,2.88
2023-01-08T06:49:54.160Z,6.10
2023-01-08T06:52:22.533Z,6.10
2023-01-08T06:54:51.248Z,2.63
2023-01-08T06:57:19.767Z,2.65
2023-01-08T06:59:48.319Z,2.15
2023-01-08T07:02:18.541Z,3.45
2023-01-08T07:04:47.154Z,2.00
2023-01-08T07:07:15.868Z,3.35
2023-01-08T07:09:44.472Z,4.53
2023-01-08T07:12:13.952Z,5.72
2023-01-08T07:14:42.458Z,3.00
2023-01-08T07:17:11.060Z,2.58
2023-01-08T07:19:39.574Z,3.85
2023-01-08T07:22:08.125Z,5.72
2023-01-08T07:24:36.627Z,5.90
2023-01-08T07:27:05.211Z,4.63
2023-01-08T07:29:33.783Z,3.17
2023-01-08T07:32:02.490Z,2.50
2023-01-08T07:34:31.214Z,4.38
2023-01-08T07:36:59.757Z,2.45
2023-01-08T07:39:28.415Z,3.20
2023-01-08T07:41:56.805Z,2.55
2023-01-08T07:44:25.433Z,2.83
2023-01-08T07:46:54.005Z,3.08
2023-01-08T07:49:22.544Z,2.80
2023-01-08T07:51:51.073Z,3.13
2023-01-08T07:54:19.634Z,2.72
2023-01-08T07:56:48.210Z,4.72
2023-01-08T07:59:16.734Z,4.95
2023-01-08T08:01:45.528Z,3.47
2023-01-08T08:04:17.557Z,2.55
2023-01-08T08:06:47.069Z,3.20
2023-01-08T08:09:15.804Z,3.40
2023-01-08T08:11:44.256Z,2.55
2023-01-08T08:14:12.714Z,4.30
2023-01-08T08:16:41.292Z,4.63
2023-01-08T08:19:12.590Z,7.28
2023-01-08T08:21:41.102Z,4.33
2023-01-08T08:24:09.641Z,3.55
2023-01-08T08:26:39.185Z,3.08
2023-01-08T08:29:07.664Z,3.67
2023-01-08T08:31:37.243Z,4.72
2023-01-08T08:34:07.926Z,3.08
2023-01-08T08:36:36.510Z,2.72
2023-01-08T08:39:05.055Z,7.20
2023-01-08T08:41:33.570Z,5.50
2023-01-08T08:44:02.024Z,2.47
2023-01-08T08:46:30.601Z,2.92
2023-01-08T08:48:59.105Z,7.28
2023-01-08T08:51:27.632Z,2.53
2023-01-08T08:53:56.177Z,2.95
2023-01-08T08:56:24.738Z,4.20
2023-01-08T08:58:53.231Z,3.97
2023-01-08T09:01:21.670Z,3.55
2023-01-08T09:03:50.447Z,3.60
2023-01-08T09:06:19.043Z,4.65
2023-01-08T09:08:47.608Z,4.65
2023-01-08T09:11:16.167Z,3.20
2023-01-08T09:13:45.637Z,3.67
2023-01-08T09:16:14.405Z,5.40
2023-01-08T09:18:45.071Z,3.78
2023-01-08T09:21:13.604Z,6.55
2023-01-08T09:23:43.265Z,3.40
2023-01-08T09:26:11.654Z,3.97
2023-01-08T09:28:42.071Z,4.20
2023-01-08T09:31:10.598Z,5.15
2023-01-08T09:33:39.485Z,3.00
2023-01-08T09:36:12.169Z,4.32
2023-01-08T09:38:40.732Z,4.82
2023-01-08T09:41:18.507Z,3.58
2023-01-08T09:43:49.806Z,3.70
2023-01-08T09:46:21.911Z,3.00
2023-01-08T09:48:52.713Z,4.03
2023-01-08T09:51:21.785Z,6.18
2023-01-08T09:53:57.515Z,3.35
2023-01-08T09:56:26.822Z,3.75
2023-01-08T09:59:00.303Z,7.15
2023-01-08T10:01:36.453Z,3.13
2023-01-08T10:04:28.900Z,5.80
2023-01-08T10:07:01.489Z,2.88
2023-01-08T10:09:32.465Z,1.98
2023-01-08T10:12:03.402Z,3.83
2023-01-08T10:14:37.727Z,4.82
2023-01-08T10:17:17.105Z,2.58
2023-01-08T10:19:45.931Z,4.47
2023-01-08T10:22:21.285Z,4.65
2023-01-08T10:24:50.733Z,2.70
2023-01-08T10:27:23.981Z,3.35
2023-01-08T10:30:04.329Z,2.53
2023-01-08T10:32:36.667Z,2.25
2023-01-08T10:35:06.878Z,2.22
2023-01-08T10:37:47.078Z,1.77
2023-01-08T10:40:34.668Z,2.53
2023-01-08T10:43:28.467Z,2.63
2023-01-08T10:46:03.135Z,1.30
2023-01-08T10:48:56.069Z,1.65
2023-01-08T10:51:26.761Z,2.67
2023-01-08T10:54:00.967Z,1.58
2023-01-08T10:56:40.370Z,1.30
2023-01-08T10:59:24.838Z,1.38
2023-01-08T11:01:57.119Z,1.80
2023-01-08T11:04:34.422Z,1.42
2023-01-08T11:07:06.150Z,0.82
2023-01-08T11:09:45.453Z,1.40
2023-01-08T11:12:31.020Z,4.28
2023-01-08T11:15:00.642Z,1.65
2023-01-08T11:17:29.497Z,1.35
2023-01-08T11:20:18.987Z,1.38
2023-01-08T11:22:47.543Z,1.08
2023-01-08T11:25:26.789Z,1.40
2023-01-08T11:27:57.068Z,0.98
2023-01-08T11:30:27.951Z,1.35
2023-01-08T11:33:04.242Z,1.17
2023-01-08T11:35:59.095Z,1.50
2023-01-08T11:38:27.757Z,1.30
2023-01-08T11:41:28.719Z,1.77
2023-01-08T11:44:29.689Z,1.98
2023-01-08T11:47:13.739Z,1.48
2023-01-08T11:50:02.936Z,1.98
2023-01-08T11:52:45.511Z,2.28
2023-01-08T11:55:32.108Z,1.70
2023-01-08T11:58:24.361Z,4.60
2023-01-08T12:01:15.272Z,3.13
2023-01-08T12:03:58.166Z,3.08
2023-01-08T12:06:41.838Z,3.17
2023-01-08T12:09:36.092Z,2.22
2023-01-08T12:12:34.886Z,2.00
2023-01-08T12:15:21.237Z,3.03
2023-01-08T12:17:52.802Z,2.53
2023-01-08T12:20:21.578Z,3.63
2023-01-08T12:23:05.302Z,2.78
2023-01-08T12:25:58.773Z,3.35
2023-01-08T12:28:39.131Z,2.67
2023-01-08T12:31:28.491Z,4.25
2023-01-08T12:34:06.060Z,3.08
2023-01-08T12:36:42.824Z,2.42
2023-01-08T12:39:27.927Z,2.42
2023-01-08T12:42:07.447Z,1.80
2023-01-08T12:44:37.997Z,2.13
2023-01-08T12:47:13.642Z,1.70
2023-01-08T12:49:51.756Z,1.67
2023-01-08T12:52:37.809Z,2.35
2023-01-08T12:55:28.138Z,2.47
2023-01-08T12:58:32.969Z,1.85
2023-01-08T13:01:29.794Z,2.78
2023-01-08T13:04:00.100Z,1.85
2023-01-08T13:06:30.091Z,2.90
2023-01-08T13:09:01.486Z,3.75
2023-01-08T13:11:38.559Z,3.17
2023-01-08T13:14:13.719Z,2.28
2023-01-08T13:16:46.039Z,3.10
2023-01-08T13:19:27.293Z,2.35
2023-01-08T13:21:58.987Z,2.20
2023-01-08T13:24:37.987Z,2.97
2023-01-08T13:27:18.455Z,1.95
2023-01-08T13:29:48.770Z,2.33
2023-01-08T13:32:26.883Z,3.08
2023-01-08T13:35:17.456Z,1.85
2023-01-08T13:37:52.105Z,3.33
2023-01-08T13:40:45.111Z,2.13
2023-01-08T13:43:22.685Z,2.33
2023-01-08T13:46:00.378Z,2.33
2023-01-08T13:48:34.018Z,4.78
2023-01-08T13:51:03.558Z,3.95
2023-01-08T13:53:33.932Z,2.53
2023-01-08T13:56:07.866Z,3.42
2023-01-08T13:58:44.076Z,4.22
2023-01-08T14:01:14.402Z,2.50
2023-01-08T14:03:47.976Z,2.28
2023-01-08T14:06:16.507Z,2.80
2023-01-08T14:09:02.211Z,6.32
2023-01-08T14:11:33.135Z,3.67
2023-01-08T14:14:02.183Z,3.88
2023-01-08T14:16:33.507Z,2.33
2023-01-08T14:19:04.922Z,2.97
2023-01-08T14:21:34.045Z,3.77
2023-01-08T14:24:02.820Z,3.00
2023-01-08T14:26:37.167Z,2.58
2023-01-08T14:29:18.966Z,2.10
2023-01-08T14:31:51.753Z,5.35
2023-01-08T14:34:26.747Z,2.78
2023-01-08T14:36:56.578Z,2.60
2023-01-08T14:39:31.053Z,3.17
2023-01-08T14:42:54.933Z,3.30
2023-01-08T14:45:27.673Z,2.22
2023-01-08T14:48:07.990Z,2.28
2023-01-08T14:50:40.977Z,4.60
2023-01-08T14:53:48.174Z,4.35
2023-01-08T14:56:26.741Z,2.70
2023-01-08T14:58:55.909Z,2.88
2023-01-08T15:01:28.142Z,2.88
2023-01-08T15:04:27.439Z,2.55
2023-01-08T15:07:28.284Z,3.45
2023-01-08T15:10:01.311Z,2.90
2023-01-08T15:12:34.185Z,2.15
2023-01-08T15:15:23.496Z,2.35
2023-01-08T15:17:52.525Z,4.15
2023-01-08T15:20:26.258Z,18.25
2023-01-08T15:22:54.901Z,3.88
2023-01-08T15:25:28.237Z,2.38
2023-01-08T15:28:04.784Z,5.40
2023-01-08T15:30:37.520Z,4.40
2023-01-08T15:33:18.041Z,3.03
2023-01-08T15:35:47.321Z,2.97
2023-01-08T15:38:16.840Z,2.72
2023-01-08T15:40:46.689Z,2.38
2023-01-08T15:43:18.020Z,2.38
2023-01-08T15:45:49.666Z,4.35
2023-01-08T15:48:18.282Z,5.80
2023-01-08T15:50:46.991Z,7.63
2023-01-08T15:53:22.411Z,4.38
2023-01-08T15:55:51.834Z,3.25
2023-01-08T15:58:20.300Z,2.05
2023-01-08T16:00:48.901Z,3.65
2023-01-08T16:03:17.714Z,2.75
2023-01-08T16:05:46.428Z,4.47
2023-01-08T16:08:15.087Z,5.50
2023-01-08T16:10:43.495Z,3.50
2023-01-08T16:13:12.423Z,2.15
2023-01-08T16:15:41.061Z,2.67
2023-01-08T16:18:09.623Z,3.22
2023-01-08T16:20:38.704Z,2.47
2023-01-08T16:23:07.208Z,3.45
2023-01-08T16:25:38.974Z,5.50
2023-01-08T16:28:07.473Z,3.78
2023-01-08T16:30:36.554Z,2.80
2023-01-08T16:33:05.133Z,4.45
2023-01-08T16:35:33.565Z,3.50
2023-01-08T16:38:02.210Z,3.50
2023-01-08T16:40:30.795Z,4.63
2023-01-08T16:43:04.211Z,4.13
2023-01-08T16:45:32.792Z,4.30
2023-01-08T16:48:02.903Z,7.35
2023-01-08T16:50:32.641Z,7.78
2023-01-08T16:53:01.150Z,3.00
2023-01-08T16:55:29.632Z,5.28
2023-01-08T16:58:00.162Z,16.17
2023-01-08T17:00:29.739Z,6.55
2023-01-08T17:02:58.291Z,7.32
2023-01-08T17:05:26.759Z,4.55
2023-01-08T17:07:55.937Z,12.93
2023-01-08T17:10:26.408Z,9.02
2023-01-08T17:12:55.325Z,6.18
2023-01-08T17:15:23.994Z,8.52
2023-01-08T17:17:52.569Z,19.20
2023-01-08T17:20:21.141Z,23.70
2023-01-08T17:22:50.901Z,31.05
2023-01-08T17:25:19.572Z,28.67
2023-01-08T17:27:48.113Z,27.63
2023-01-08T17:30:16.836Z,20.65
2023-01-08T17:32:45.416Z,16.60
2023-01-08T17:35:13.932Z,28.67
2023-01-08T17:37:42.560Z,19.17
2023-01-08T17:40:11.792Z,37.08
2023-01-08T17:42:40.383Z,22.15
2023-01-08T17:45:09.483Z,29.80
2023-01-08T17:47:39.165Z,10.13
2023-01-08T17:50:08.344Z,12.60
2023-01-08T17:52:37.421Z,13.05
2023-01-08T17:55:06.257Z,5.88
2023-01-08T17:57:34.866Z,5.68
2023-01-08T18:00:04.371Z,6.63
2023-01-08T18:02:32.835Z,14.32
2023-01-08T18:05:01.479Z,8.30
2023-01-08T18:07:33.254Z,9.80
2023-01-08T18:10:03.622Z,12.63
2023-01-08T18:12:32.464Z,32.70
2023-01-08T18:15:01.049Z,7.53
2023-01-08T18:17:31.243Z,29.67
2023-01-08T18:19:59.674Z,8.20
2023-01-08T18:22:28.231Z,5.68
2023-01-08T18:24:57.721Z,11.23
2023-01-08T18:27:26.344Z,6.22
2023-01-08T18:29:54.850Z,12.60
2023-01-08T18:32:25.914Z,14.20
2023-01-08T18:34:55.113Z,5.47
2023-01-08T18:37:24.835Z,5.30
2023-01-08T18:39:53.290Z,4.50
2023-01-08T18:42:27.609Z,3.80
2023-01-08T18:44:57.925Z,4.35
2023-01-08T18:47:28.840Z,5.35
2023-01-08T18:49:59.833Z,5.35
2023-01-08T18:52:28.822Z,5.85
2023-01-08T18:54:57.739Z,5.60
2023-01-08T18:57:27.443Z,4.65
2023-01-08T18:59:56.153Z,5.85
2023-01-08T19:02:30.493Z,3.38
2023-01-08T19:04:58.922Z,5.78
2023-01-08T19:07:27.691Z,7.13
2023-01-08T19:09:57.000Z,3.80
2023-01-08T19:12:27.615Z,9.40
2023-01-08T19:14:56.116Z,5.40
2023-01-08T19:17:24.981Z,5.82
2023-01-08T19:19:53.375Z,6.35
2023-01-08T19:22:26.511Z,15.05
2023-01-08T19:24:56.110Z,14.68
2023-01-08T19:27:25.031Z,4.90
2023-01-08T19:29:53.569Z,5.95
2023-01-08T19:32:22.119Z,8.63
2023-01-08T19:34:50.741Z,6.10
2023-01-08T19:37:19.510Z,7.82
2023-01-08T19:39:47.988Z,5.35
2023-01-08T19:42:34.863Z,6.72
2023-01-08T19:45:03.690Z,8.93
2023-01-08T19:47:32.184Z,5.38
2023-01-08T19:50:00.643Z,5.28
2023-01-08T19:52:29.090Z,6.20
2023-01-08T19:54:58.460Z,5.68
2023-01-08T19:57:27.283Z,4.70
2023-01-08T19:59:55.695Z,4.05
2023-01-08T20:02:24.366Z,4.00
2023-01-08T20:04:52.909Z,8.63
2023-01-08T20:07:21.414Z,11.43
2023-01-08T20:09:49.847Z,6.50
2023-01-08T20:12:18.291Z,6.20
2023-01-08T20:14:48.113Z,3.33
2023-01-08T20:17:25.239Z,6.00
2023-01-08T20:19:54.062Z,3.45
2023-01-08T20:22:22.605Z,4.05
2023-01-08T20:24:52.867Z,7.63
2023-01-08T20:27:22.379Z,4.25
2023-01-08T20:29:50.795Z,8.57
2023-01-08T20:32:20.982Z,5.00
2023-01-08T20:34:50.865Z,3.17
2023-01-08T20:37:19.285Z,4.20
2023-01-08T20:39:47.773Z,4.18
2023-01-08T20:42:17.778Z,6.00
2023-01-08T20:44:55.867Z,5.50
2023-01-08T20:47:24.490Z,4.25
2023-01-08T20:49:53.044Z,4.72
2023-01-08T20:52:21.538Z,4.40
2023-01-08T20:54:50.842Z,3.50
2023-01-08T20:57:19.244Z,5.00
2023-01-08T20:59:47.856Z,3.45
2023-01-08T21:02:16.268Z,3.83
2023-01-08T21:04:46.321Z,5.30
2023-01-08T21:07:15.428Z,5.90
2023-01-08T21:09:44.419Z,4.57
2023-01-08T21:12:12.881Z,3.92
2023-01-08T21:14:41.385Z,8.30
2023-01-08T21:17:09.819Z,9.15
2023-01-08T21:19:38.344Z,8.93
2023-01-08T21:22:07.875Z,6.13
2023-01-08T21:24:36.750Z,9.93
2023-01-08T21:27:05.360Z,4.72
2023-01-08T21:29:33.811Z,9.20
2023-01-08T21:32:02.314Z,30.17
2023-01-08T21:34:30.824Z,4.05
2023-01-08T21:37:02.292Z,3.40
2023-01-08T21:39:32.931Z,3.35
2023-01-08T21:42:20.250Z,6.18
2023-01-08T21:45:07.123Z,4.32
2023-01-08T21:47:35.775Z,4.93
2023-01-08T21:50:04.848Z,12.25
2023-01-08T21:52:51.861Z,3.17
2023-01-08T21:55:20.349Z,7.03
2023-01-08T21:57:48.780Z,4.65
2023-01-08T22:00:17.546Z,6.88
2023-01-08T22:02:46.195Z,1.85
2023-01-08T22:05:14.642Z,3.78
2023-01-08T22:07:43.141Z,2.67
2023-01-08T22:10:11.772Z,2.10
2023-01-08T22:12:41.614Z,2.97
2023-01-08T22:15:10.408Z,4.40
2023-01-08T22:17:38.928Z,9.52
2023-01-08T22:20:09.639Z,6.38
2023-01-08T22:22:38.724Z,4.47
2023-01-08T22:25:07.780Z,3.33
2023-01-08T22:27:36.157Z,5.80
2023-01-08T22:30:07.741Z,6.90
2023-01-08T22:35:05.749Z,6.95
2023-01-08T22:37:36.561Z,2.25
2023-01-08T22:40:05.290Z,1.77
2023-01-08T22:42:33.749Z,3.05
2023-01-08T22:45:02.222Z,5.10
2023-01-08T22:47:30.707Z,4.28
2023-01-08T22:49:59.131Z,3.63
2023-01-08T22:52:27.576Z,1.05
2023-01-08T22:54:57.940Z,0.80
2023-01-08T22:57:26.447Z,0.98
2023-01-08T22:59:54.835Z,1.23
2023-01-08T23:02:24.529Z,1.10
2023-01-08T23:04:54.051Z,1.90
2023-01-08T23:07:23.237Z,1.60
2023-01-08T23:09:51.593Z,1.10
2023-01-08T23:12:20.228Z,1.27
2023-01-08T23:14:48.737Z,0.93
2023-01-08T23:17:17.114Z,1.77
2023-01-08T23:19:45.595Z,1.10
2023-01-08T23:22:14.004Z,1.55
2023-01-08T23:24:42.388Z,1.30
2023-01-08T23:27:10.859Z,1.20
2023-01-08T23:29:39.272Z,1.33
2023-01-08T23:32:07.769Z,1.52
2023-01-08T23:34:36.209Z,1.10
2023-01-08T23:37:04.601Z,1.65
2023-01-08T23:39:33.086Z,1.67
2023-01-08T23:42:01.516Z,1.85
2023-01-08T23:44:29.918Z,1.42
2023-01-08T23:46:58.468Z,1.58
2023-01-08T23:49:26.873Z,1.63
2023-01-08T23:51:55.824Z,1.95
2023-01-08T23:54:24.287Z,1.45
2023-01-08T23:56:53.724Z,3.08
2023-01-08T23:59:22.161Z,1.38
